createdAt,value
2022-08-14T00:02:02.404Z,67.40
2022-08-14T00:04:35.863Z,67.50
2022-08-14T00:07:10.808Z,67.60
2022-08-14T00:09:55.179Z,67.80
2022-08-14T00:12:33.630Z,67.80
2022-08-14T00:15:09.345Z,67.50
2022-08-14T00:17:47.393Z,67.90
2022-08-14T00:20:24.189Z,68.00
2022-08-14T00:23:11.869Z,68.20
2022-08-14T00:25:42.888Z,68.30
2022-08-14T00:28:17.834Z,68.40
2022-08-14T00:30:47.365Z,68.60
2022-08-14T00:33:16.387Z,69.00
2022-08-14T00:36:37.054Z,68.90
2022-08-14T00:38:35.054Z,69.00
2022-08-14T00:41:03.531Z,69.20
2022-08-14T00:43:32.510Z,69.30
2022-08-14T00:46:02.807Z,69.30
2022-08-14T00:48:34.448Z,69.10
2022-08-14T00:51:06.964Z,69.30
2022-08-14T00:53:34.987Z,68.80
2022-08-14T00:56:07.133Z,69.00
2022-08-14T00:58:36.697Z,69.00
2022-08-14T01:01:14.648Z,69.20
2022-08-14T01:03:45.302Z,69.40
2022-08-14T01:06:16.876Z,69.40
2022-08-14T01:08:51.978Z,69.60
2022-08-14T01:11:35.474Z,69.70
2022-08-14T01:14:25.353Z,69.70
2022-08-14T01:16:55.629Z,69.70
2022-08-14T01:19:41.711Z,69.90
2022-08-14T01:22:13.137Z,69.80
2022-08-14T01:24:43.590Z,70.00
2022-08-14T01:27:16.098Z,70.00
2022-08-14T01:29:59.079Z,69.90
2022-08-14T01:32:31.727Z,69.90
2022-08-14T01:35:20.712Z,69.90
2022-08-14T01:37:58.493Z,69.80
2022-08-14T01:40:36.443Z,69.90
2022-08-14T01:43:11.524Z,69.80
2022-08-14T01:45:40.599Z,70.30
2022-08-14T01:48:13.750Z,70.30
2022-08-14T01:50:42.571Z,70.30
2022-08-14T01:53:14.579Z,70.50
2022-08-14T01:55:42.544Z,70.90
2022-08-14T01:58:19.815Z,70.90
2022-08-14T02:00:58.956Z,70.80
2022-08-14T02:03:30.325Z,71.20
2022-08-14T02:06:03.554Z,71.30
2022-08-14T02:08:37.643Z,71.80
2022-08-14T02:11:23.890Z,71.50
2022-08-14T02:13:54.073Z,71.60
2022-08-14T02:16:26.446Z,71.60
2022-08-14T02:18:55.958Z,71.70
2022-08-14T02:21:23.880Z,72.00
2022-08-14T02:23:54.371Z,72.20
2022-08-14T02:26:28.988Z,72.10
2022-08-14T02:29:00.172Z,72.50
2022-08-14T02:31:42.001Z,72.50
2022-08-14T02:34:14.769Z,72.50
2022-08-14T02:37:06.105Z,72.90
2022-08-14T02:39:37.666Z,72.90
2022-08-14T02:42:06.796Z,73.00
2022-08-14T02:44:42.222Z,73.00
2022-08-14T02:47:15.148Z,73.40
2022-08-14T02:49:50.613Z,73.30
2022-08-14T02:52:26.649Z,73.20
2022-08-14T02:55:15.529Z,73.40
2022-08-14T02:57:58.287Z,73.50
2022-08-14T03:00:33.125Z,73.40
2022-08-14T03:03:02.736Z,73.50
2022-08-14T03:05:37.022Z,73.30
2022-08-14T03:08:10.021Z,73.50
2022-08-14T03:10:42.022Z,73.60
2022-08-14T03:13:19.768Z,73.50
2022-08-14T03:15:55.123Z,74.00
2022-08-14T03:18:32.017Z,74.00
2022-08-14T03:21:05.433Z,74.00
2022-08-14T03:23:38.235Z,73.90
2022-08-14T03:26:12.996Z,74.00
2022-08-14T03:28:46.934Z,74.20
2022-08-14T03:31:15.109Z,74.20
2022-08-14T03:33:43.673Z,74.20
2022-08-14T03:37:29.646Z,74.50
2022-08-14T03:39:15.720Z,74.50
2022-08-14T03:41:52.683Z,74.30
2022-08-14T03:45:26.419Z,74.20
2022-08-14T03:47:09.030Z,73.90
2022-08-14T03:49:42.274Z,74.00
2022-08-14T03:52:28.094Z,74.00
2022-08-14T03:54:59.778Z,74.00
2022-08-14T03:57:37.028Z,74.00
2022-08-14T04:00:08.929Z,74.00
2022-08-14T04:02:47.199Z,73.90
2022-08-14T04:05:16.507Z,74.00
2022-08-14T04:08:00.350Z,74.10
2022-08-14T04:10:34.818Z,73.80
2022-08-14T04:13:06.052Z,73.90
2022-08-14T04:15:56.609Z,73.90
2022-08-14T04:18:22.589Z,74.00
2022-08-14T04:20:54.642Z,74.00
2022-08-14T04:23:29.533Z,74.10
2022-08-14T04:26:01.383Z,74.10
2022-08-14T04:29:05.315Z,74.50
2022-08-14T04:32:59.194Z,74.40
2022-08-14T04:34:08.100Z,74.50
2022-08-14T04:36:58.805Z,74.30
2022-08-14T04:39:46.568Z,74.30
2022-08-14T04:42:31.736Z,73.80
2022-08-14T04:45:01.662Z,73.20
2022-08-14T04:47:46.946Z,72.30
2022-08-14T04:50:31.337Z,71.30
2022-08-14T04:53:11.091Z,70.70
2022-08-14T04:55:39.184Z,69.80
2022-08-14T04:58:07.143Z,69.50
2022-08-14T05:00:52.213Z,69.20
2022-08-14T05:03:20.989Z,69.00
2022-08-14T05:05:50.394Z,68.70
2022-08-14T05:08:32.204Z,68.60
2022-08-14T05:11:13.393Z,68.30
2022-08-14T05:16:33.158Z,67.50
2022-08-14T05:19:18.304Z,66.80
2022-08-14T05:21:57.419Z,66.70
2022-08-14T05:24:28.771Z,66.60
2022-08-14T05:26:56.695Z,66.60
2022-08-14T05:29:24.585Z,65.90
2022-08-14T05:31:57.336Z,65.40
2022-08-14T05:34:31.441Z,64.60
2022-08-14T05:37:02.735Z,64.10
2022-08-14T05:39:31.811Z,63.90
2022-08-14T05:42:00.675Z,64.50
2022-08-14T05:44:30.643Z,64.90
2022-08-14T05:47:00.465Z,64.60
2022-08-14T05:49:33.088Z,64.50
2022-08-14T05:52:02.291Z,64.70
2022-08-14T05:54:35.907Z,64.20
2022-08-14T05:57:05.126Z,63.30
2022-08-14T05:59:38.636Z,63.10
2022-08-14T06:02:10.526Z,62.40
2022-08-14T06:04:39.205Z,61.90
2022-08-14T06:07:07.463Z,61.80
2022-08-14T06:09:40.416Z,61.40
2022-08-14T06:12:09.020Z,60.40
2022-08-14T06:14:36.979Z,60.50
2022-08-14T06:17:08.358Z,60.30
2022-08-14T06:19:37.653Z,60.90
2022-08-14T06:22:06.118Z,60.50
2022-08-14T06:24:36.747Z,60.50
2022-08-14T06:27:11.909Z,59.90
2022-08-14T06:29:39.937Z,59.40
2022-08-14T06:32:37.967Z,59.00
2022-08-14T06:35:09.462Z,59.00
2022-08-14T06:37:41.567Z,59.80
2022-08-14T06:40:25.429Z,61.00
2022-08-14T06:42:56.734Z,60.80
2022-08-14T06:45:28.540Z,60.20
2022-08-14T06:47:58.855Z,59.70
2022-08-14T06:50:30.139Z,58.60
2022-08-14T06:52:59.323Z,57.00
2022-08-14T06:55:28.248Z,55.80
2022-08-14T06:57:58.120Z,55.80
2022-08-14T07:00:30.800Z,56.30
2022-08-14T07:03:17.344Z,56.10
2022-08-14T07:05:55.936Z,56.50
2022-08-14T07:08:29.497Z,56.00
2022-08-14T07:11:00.072Z,56.40
2022-08-14T07:13:28.653Z,56.50
2022-08-14T07:16:00.341Z,56.80
2022-08-14T07:18:29.570Z,56.70
2022-08-14T07:20:59.764Z,57.10
2022-08-14T07:23:31.385Z,56.60
2022-08-14T07:26:00.207Z,56.20
2022-08-14T07:28:31.422Z,55.70
2022-08-14T07:31:04.698Z,55.50
2022-08-14T07:33:35.118Z,54.40
2022-08-14T07:36:09.061Z,54.00
2022-08-14T07:38:56.026Z,53.80
2022-08-14T07:41:24.053Z,54.10
2022-08-14T07:43:55.855Z,54.20
2022-08-14T07:46:29.159Z,52.70
2022-08-14T07:48:57.914Z,53.50
2022-08-14T07:51:34.235Z,53.30
2022-08-14T07:54:09.733Z,52.20
2022-08-14T07:56:47.673Z,52.60
2022-08-14T07:59:17.955Z,50.80
2022-08-14T08:01:51.018Z,49.40
2022-08-14T08:04:25.319Z,49.10
2022-08-14T08:06:56.761Z,49.40
2022-08-14T08:09:31.942Z,48.80
2022-08-14T08:12:01.663Z,47.70
2022-08-14T08:14:34.606Z,47.40
2022-08-14T08:17:24.157Z,45.80
2022-08-14T08:19:52.330Z,43.70
2022-08-14T08:22:23.723Z,42.90
2022-08-14T08:24:55.551Z,41.40
2022-08-14T08:27:25.963Z,39.60
2022-08-14T08:30:03.427Z,39.00
2022-08-14T08:32:38.892Z,38.90
2022-08-14T08:35:10.780Z,38.60
2022-08-14T08:37:43.753Z,38.70
2022-08-14T08:40:20.858Z,39.10
2022-08-14T08:42:52.130Z,39.70
2022-08-14T08:45:22.542Z,39.40
2022-08-14T08:47:51.864Z,38.30
2022-08-14T08:50:23.397Z,36.90
2022-08-14T08:53:02.039Z,37.00
2022-08-14T08:55:31.899Z,36.30
2022-08-14T08:58:04.360Z,35.00
2022-08-14T09:00:34.808Z,34.50
2022-08-14T09:03:05.903Z,34.10
2022-08-14T09:05:34.918Z,33.50
2022-08-14T09:08:30.479Z,33.30
2022-08-14T09:11:01.125Z,33.50
2022-08-14T09:13:30.667Z,33.90
2022-08-14T09:16:01.880Z,33.20
2022-08-14T09:18:47.638Z,32.90
2022-08-14T09:21:16.169Z,32.60
2022-08-14T09:24:26.652Z,32.10
2022-08-14T09:26:33.585Z,32.20
2022-08-14T09:29:01.697Z,32.60
2022-08-14T09:31:43.056Z,32.30
2022-08-14T09:34:27.405Z,32.50
2022-08-14T09:37:13.238Z,31.40
2022-08-14T09:39:53.581Z,30.80
2022-08-14T09:42:33.353Z,31.80
2022-08-14T09:45:15.164Z,31.10
2022-08-14T09:47:45.933Z,30.80
2022-08-14T09:50:20.885Z,30.30
2022-08-14T09:52:54.869Z,29.70
2022-08-14T09:55:28.045Z,29.90
2022-08-14T09:58:08.395Z,30.80
2022-08-14T10:00:44.208Z,32.00
2022-08-14T10:03:12.716Z,32.80
2022-08-14T10:05:41.284Z,32.20
2022-08-14T10:08:25.331Z,32.40
2022-08-14T10:11:01.560Z,31.40
2022-08-14T10:13:52.452Z,31.00
2022-08-14T10:16:25.985Z,29.70
2022-08-14T10:19:07.260Z,29.00
2022-08-14T10:21:38.929Z,29.70
2022-08-14T10:24:36.424Z,30.40
2022-08-14T10:27:16.985Z,29.20
2022-08-14T10:29:47.441Z,28.30
2022-08-14T10:32:18.116Z,27.60
2022-08-14T10:35:05.289Z,28.00
2022-08-14T10:37:38.936Z,28.30
2022-08-14T10:40:10.957Z,29.20
2022-08-14T10:42:57.949Z,30.00
2022-08-14T10:45:27.171Z,30.20
2022-08-14T10:48:09.104Z,30.10
2022-08-14T10:50:46.467Z,29.00
2022-08-14T10:53:15.239Z,28.40
2022-08-14T10:55:45.626Z,27.30
2022-08-14T10:58:17.362Z,27.50
2022-08-14T11:00:56.816Z,26.80
2022-08-14T11:03:35.645Z,26.90
2022-08-14T11:06:20.295Z,25.20
2022-08-14T11:08:50.801Z,25.90
2022-08-14T11:11:19.327Z,26.60
2022-08-14T11:13:50.702Z,26.90
2022-08-14T11:16:19.646Z,27.30
2022-08-14T11:18:50.921Z,27.60
2022-08-14T11:21:23.276Z,27.80
2022-08-14T11:23:53.528Z,27.50
2022-08-14T11:26:24.361Z,27.40
2022-08-14T11:28:54.122Z,27.60
2022-08-14T11:31:24.334Z,27.70
2022-08-14T11:33:55.134Z,27.00
2022-08-14T11:36:23.912Z,27.00
2022-08-14T11:39:03.411Z,27.70
2022-08-14T11:41:42.831Z,28.60
2022-08-14T11:44:45.784Z,28.50
2022-08-14T11:47:18.401Z,27.90
2022-08-14T11:49:47.288Z,28.60
2022-08-14T11:52:21.720Z,28.80
2022-08-14T11:54:58.019Z,28.50
2022-08-14T11:57:26.041Z,28.40
2022-08-14T12:00:04.753Z,28.90
2022-08-14T12:03:01.009Z,28.50
2022-08-14T12:05:35.958Z,28.50
2022-08-14T12:08:06.863Z,29.00
2022-08-14T12:10:42.677Z,29.10
2022-08-14T12:13:17.448Z,29.40
2022-08-14T12:15:49.595Z,28.90
2022-08-14T12:18:30.027Z,28.70
2022-08-14T12:20:59.494Z,28.30
2022-08-14T12:23:28.221Z,28.60
2022-08-14T12:26:39.378Z,28.10
2022-08-14T12:29:08.453Z,28.20
2022-08-14T12:31:44.828Z,27.10
2022-08-14T12:34:20.426Z,26.90
2022-08-14T12:36:51.279Z,27.60
2022-08-14T12:39:20.299Z,28.10
2022-08-14T12:41:53.784Z,28.40
2022-08-14T12:44:35.042Z,27.60
2022-08-14T12:47:06.206Z,27.80
2022-08-14T12:49:34.991Z,28.10
2022-08-14T12:52:03.844Z,28.10
2022-08-14T12:54:32.342Z,28.00
2022-08-14T12:57:04.877Z,27.10
2022-08-14T12:59:37.166Z,26.70
2022-08-14T13:02:25.398Z,27.30
2022-08-14T13:04:55.564Z,27.20
2022-08-14T13:07:24.264Z,27.60
2022-08-14T13:09:55.680Z,27.00
2022-08-14T13:12:32.349Z,26.20
2022-08-14T13:15:08.935Z,27.40
2022-08-14T13:17:42.433Z,28.20
2022-08-14T13:20:23.226Z,29.20
2022-08-14T13:22:54.945Z,29.60
2022-08-14T13:25:25.464Z,30.70
2022-08-14T13:27:55.579Z,29.90
2022-08-14T13:30:24.862Z,30.60
2022-08-14T13:32:58.102Z,29.70
2022-08-14T13:35:26.751Z,28.50
2022-08-14T13:37:55.151Z,28.20
2022-08-14T13:40:26.362Z,28.40
2022-08-14T13:42:57.077Z,29.20
2022-08-14T13:45:34.036Z,29.30
2022-08-14T13:48:18.434Z,30.10
2022-08-14T13:51:01.965Z,28.60
2022-08-14T13:53:33.089Z,28.80
2022-08-14T13:56:02.565Z,29.50
2022-08-14T13:58:35.761Z,29.10
2022-08-14T14:01:06.724Z,29.90
2022-08-14T14:03:37.774Z,29.90
2022-08-14T14:06:08.183Z,29.60
2022-08-14T14:08:45.947Z,30.40
2022-08-14T14:11:16.597Z,29.90
2022-08-14T14:13:46.433Z,29.80
2022-08-14T14:16:26.591Z,29.80
2022-08-14T14:19:09.829Z,29.10
2022-08-14T14:21:40.988Z,29.00
2022-08-14T14:24:14.825Z,29.70
2022-08-14T14:26:45.145Z,30.20
2022-08-14T14:29:14.869Z,31.10
2022-08-14T14:31:45.408Z,32.20
2022-08-14T14:34:29.348Z,33.00
2022-08-14T14:37:04.618Z,33.20
2022-08-14T14:39:37.705Z,33.30
2022-08-14T14:42:08.156Z,34.30
2022-08-14T14:44:40.465Z,34.40
2022-08-14T14:47:11.693Z,34.20
2022-08-14T14:49:55.108Z,34.10
2022-08-14T14:52:27.619Z,33.30
2022-08-14T14:54:58.377Z,33.20
2022-08-14T14:57:34.763Z,33.50
2022-08-14T15:00:06.016Z,32.90
2022-08-14T15:02:36.532Z,33.40
2022-08-14T15:05:08.053Z,32.80
2022-08-14T15:07:36.444Z,33.10
2022-08-14T15:10:05.116Z,34.00
2022-08-14T15:12:55.061Z,34.70
2022-08-14T15:15:21.334Z,34.50
2022-08-14T15:17:54.758Z,34.80
2022-08-14T15:20:30.306Z,34.70
2022-08-14T15:23:00.664Z,35.20
2022-08-14T15:25:31.896Z,35.40
2022-08-14T15:28:02.833Z,35.70
2022-08-14T15:30:33.198Z,36.00
2022-08-14T15:33:01.612Z,36.10
2022-08-14T15:35:34.188Z,35.80
2022-08-14T15:38:07.835Z,35.30
2022-08-14T15:40:37.581Z,34.90
2022-08-14T15:43:10.824Z,34.90
2022-08-14T15:45:41.763Z,34.60
2022-08-14T15:48:12.589Z,34.90
2022-08-14T15:50:51.930Z,35.00
2022-08-14T15:53:22.206Z,34.80
2022-08-14T15:55:50.109Z,35.30
2022-08-14T15:58:21.191Z,35.40
2022-08-14T16:01:07.530Z,36.00
2022-08-14T16:03:39.975Z,36.10
2022-08-14T16:06:15.718Z,35.70
2022-08-14T16:08:50.255Z,35.70
2022-08-14T16:11:27.404Z,36.50
2022-08-14T16:14:00.926Z,36.70
2022-08-14T16:16:50.792Z,36.60
2022-08-14T16:19:19.912Z,37.20
2022-08-14T16:22:02.472Z,36.60
2022-08-14T16:25:02.602Z,36.90
2022-08-14T16:27:39.478Z,37.10
2022-08-14T16:30:12.146Z,37.40
2022-08-14T16:32:55.085Z,37.30
2022-08-14T16:35:24.999Z,37.60
2022-08-14T16:37:55.832Z,37.70
2022-08-14T16:43:03.157Z,38.00
2022-08-14T16:45:43.819Z,38.40
2022-08-14T16:48:57.350Z,38.30
2022-08-14T16:51:06.688Z,38.80
2022-08-14T16:53:37.292Z,38.80
2022-08-14T16:56:23.147Z,39.00
2022-08-14T16:59:05.095Z,38.80
2022-08-14T17:01:33.472Z,39.10
2022-08-14T17:04:03.322Z,39.20
2022-08-14T17:06:37.182Z,39.10
2022-08-14T17:09:06.975Z,39.20
2022-08-14T17:11:37.352Z,39.40
2022-08-14T17:14:10.161Z,39.70
2022-08-14T17:16:38.970Z,39.60
2022-08-14T17:19:14.034Z,39.70
2022-08-14T17:21:47.148Z,39.90
2022-08-14T17:24:51.458Z,39.90
2022-08-14T17:27:07.300Z,40.00
2022-08-14T17:29:44.500Z,40.20
2022-08-14T17:32:29.587Z,40.00
2022-08-14T17:35:16.587Z,39.90
2022-08-14T17:37:55.577Z,40.10
2022-08-14T17:40:30.823Z,40.50
2022-08-14T17:43:01.931Z,40.70
2022-08-14T17:45:43.199Z,41.00
2022-08-14T17:49:10.640Z,41.00
2022-08-14T17:51:14.586Z,41.20
2022-08-14T17:53:52.729Z,41.50
2022-08-14T17:56:23.298Z,41.50
2022-08-14T17:58:53.736Z,41.80
2022-08-14T18:01:23.573Z,41.70
2022-08-14T18:03:55.005Z,42.40
2022-08-14T18:06:38.244Z,42.70
2022-08-14T18:09:24.709Z,43.70
2022-08-14T18:11:57.029Z,42.50
2022-08-14T18:14:32.324Z,43.20
2022-08-14T18:17:02.340Z,43.30
2022-08-14T18:19:31.765Z,43.10
2022-08-14T18:22:05.771Z,43.60
2022-08-14T18:24:54.015Z,43.90
2022-08-14T18:27:24.534Z,44.30
2022-08-14T18:29:54.491Z,44.80
2022-08-14T18:32:55.076Z,45.00
2022-08-14T18:35:46.249Z,45.00
2022-08-14T18:38:26.109Z,45.70
2022-08-14T18:41:21.693Z,46.00
2022-08-14T18:43:59.627Z,45.40
2022-08-14T18:47:01.035Z,46.00
2022-08-14T18:49:17.210Z,45.70
2022-08-14T18:51:47.035Z,46.20
2022-08-14T18:54:29.787Z,46.60
2022-08-14T18:57:01.968Z,46.80
2022-08-14T18:59:35.346Z,47.30
2022-08-14T19:02:22.430Z,47.50
2022-08-14T19:04:59.573Z,47.30
2022-08-14T19:07:33.926Z,47.10
2022-08-14T19:10:03.519Z,47.40
2022-08-14T19:12:50.035Z,47.80
2022-08-14T19:15:25.915Z,47.90
2022-08-14T19:18:15.092Z,47.70
2022-08-14T19:20:52.729Z,48.60
2022-08-14T19:23:22.899Z,48.40
2022-08-14T19:25:52.910Z,48.80
2022-08-14T19:28:30.923Z,49.10
2022-08-14T19:31:21.215Z,50.00
2022-08-14T19:33:52.782Z,49.60
2022-08-14T19:36:31.559Z,50.80
2022-08-14T19:39:11.335Z,50.70
2022-08-14T19:41:41.154Z,50.40
2022-08-14T19:44:20.749Z,51.10
2022-08-14T19:47:04.925Z,51.90
2022-08-14T19:50:08.098Z,52.30
2022-08-14T19:52:29.628Z,52.90
2022-08-14T19:54:58.632Z,54.10
2022-08-14T19:57:29.220Z,54.70
2022-08-14T20:00:01.958Z,55.70
2022-08-14T20:02:41.055Z,56.80
2022-08-14T20:05:11.369Z,57.50
2022-08-14T20:07:59.246Z,57.90
2022-08-14T20:11:07.975Z,58.10
2022-08-14T20:13:25.056Z,58.60
2022-08-14T20:16:02.785Z,59.60
2022-08-14T20:18:49.932Z,60.40
2022-08-14T20:21:21.545Z,61.60
2022-08-14T20:23:50.247Z,62.20
2022-08-14T20:26:31.539Z,62.30
2022-08-14T20:29:04.958Z,62.70
2022-08-14T20:31:36.562Z,62.70
2022-08-14T20:34:19.067Z,62.80
2022-08-14T20:37:04.220Z,62.70
2022-08-14T20:39:34.193Z,62.80
2022-08-14T20:42:23.811Z,62.70
2022-08-14T20:45:13.414Z,62.80
2022-08-14T20:47:48.471Z,63.20
2022-08-14T20:50:28.582Z,63.40
2022-08-14T20:53:00.250Z,63.50
2022-08-14T20:55:30.016Z,63.90
2022-08-14T20:57:59.110Z,63.90
2022-08-14T21:00:37.468Z,63.50
2022-08-14T21:03:23.926Z,62.80
2022-08-14T21:05:59.720Z,62.10
2022-08-14T21:08:30.401Z,61.70
2022-08-14T21:10:58.665Z,61.50
2022-08-14T21:14:24.738Z,61.10
2022-08-14T21:16:34.215Z,60.80
2022-08-14T21:19:04.151Z,60.60
2022-08-14T21:21:41.663Z,60.50
2022-08-14T21:24:38.670Z,60.40
2022-08-14T21:27:04.632Z,59.70
2022-08-14T21:29:53.891Z,58.90
2022-08-14T21:32:34.901Z,59.20
2022-08-14T21:35:08.689Z,59.30
2022-08-14T21:37:46.044Z,59.10
2022-08-14T21:40:39.933Z,58.70
2022-08-14T21:43:05.111Z,58.50
2022-08-14T21:45:36.444Z,58.50
2022-08-14T21:48:10.726Z,58.40
2022-08-14T21:51:01.079Z,58.20
2022-08-14T21:53:30.953Z,57.70
2022-08-14T21:55:59.446Z,57.50
2022-08-14T21:58:53.605Z,57.30
2022-08-14T22:01:19.257Z,57.00
2022-08-14T22:03:54.616Z,56.90
2022-08-14T22:06:28.528Z,56.80
2022-08-14T22:08:58.938Z,56.60
2022-08-14T22:11:27.371Z,56.60
2022-08-14T22:13:56.068Z,56.30
2022-08-14T22:17:00.076Z,56.30
2022-08-14T22:19:14.787Z,56.10
2022-08-14T22:21:45.382Z,56.40
2022-08-14T22:24:38.293Z,56.30
2022-08-14T22:27:04.265Z,56.40
2022-08-14T22:29:35.274Z,56.60
2022-08-14T22:32:07.215Z,56.50
2022-08-14T22:34:35.389Z,56.50
2022-08-14T22:37:08.718Z,56.70
2022-08-14T22:40:17.734Z,56.80
2022-08-14T22:42:35.364Z,56.80
2022-08-14T22:45:05.831Z,56.50
2022-08-14T22:47:40.371Z,56.40
2022-08-14T22:50:28.748Z,56.30
2022-08-14T22:52:59.160Z,56.10
2022-08-14T22:55:29.842Z,56.00
2022-08-14T22:58:05.240Z,56.30
2022-08-14T23:00:34.148Z,55.90
2022-08-14T23:03:03.671Z,55.90
2022-08-14T23:05:38.676Z,55.90
2022-08-14T23:08:56.534Z,55.40
2022-08-14T23:10:56.710Z,55.40
2022-08-14T23:13:24.676Z,55.10
2022-08-14T23:15:53.435Z,55.00
2022-08-14T23:18:24.152Z,55.30
2022-08-14T23:20:57.696Z,55.20
2022-08-14T23:23:25.648Z,54.90
2022-08-14T23:25:59.412Z,54.80
2022-08-14T23:28:56.809Z,54.90
2022-08-14T23:31:34.395Z,55.00
2022-08-14T23:34:07.158Z,55.00
2022-08-14T23:36:52.556Z,54.60
2022-08-14T23:39:24.462Z,54.40
2022-08-14T23:41:57.928Z,54.50
2022-08-14T23:44:35.365Z,54.50
2022-08-14T23:47:10.923Z,54.50
2022-08-14T23:49:56.929Z,54.50
2022-08-14T23:52:50.215Z,54.70
2022-08-14T23:55:18.623Z,54.80
2022-08-14T23:57:57.918Z,55.10
